Time;durP1;ratioP1;P1;durP2;ratioP2;P2;SDS_P1;SDS_P2;PMS_P1;PMS_P2;Temp;Humidity;BMP_temperature;BMP_pressure;BME280_temperature;BME280_humidity;BME280_pressure;Samples;Min_cycle;Max_cycle;Signal;HPM_P1;HPM_P2
2024/03/27 00:00:07;;;;;;;4.73;2.47;;;;;;;10.45;100.00;100647.13;2085793;28;20206;-69
2024/03/27 00:01:10;;;;;;;3.00;2.17;;;;;;;11.47;100.00;100784.88;2088268;28;20433;-69
2024/03/27 00:02:10;;;;;;;3.97;2.37;;;;;;;11.43;100.00;100778.63;2085828;28;20441;-69
2024/03/27 00:03:11;;;;;;;3.57;2.30;;;;;;;11.57;100.00;100789.38;2088634;28;20434;-69
2024/03/27 00:04:11;;;;;;;4.27;2.50;;;;;;;11.08;100.00;100740.66;2086537;28;20699;-69
2024/03/27 00:05:12;;;;;;;5.43;2.03;;;;;;;11.61;100.00;100784.53;2088244;28;20200;-70
2024/03/27 00:06:13;;;;;;;2.83;2.00;;;;;;;11.48;100.00;100767.00;2091296;28;20179;-69
2024/03/27 00:07:14;;;;;;;3.03;2.20;;;;;;;11.67;100.00;100788.34;2087962;28;20177;-69
2024/03/27 00:08:14;;;;;;;3.70;2.10;;;;;;;11.70;100.00;100783.91;2086122;28;20478;-70
2024/03/27 00:09:15;;;;;;;4.83;2.43;;;;;;;10.62;100.00;100623.75;2086529;28;20553;-69
2024/03/27 00:10:16;;;;;;;4.60;2.23;;;;;;;11.38;100.00;100743.06;2086769;28;20183;-70
2024/03/27 00:11:16;;;;;;;3.90;2.10;;;;;;;11.52;100.00;100759.38;2084853;28;20885;-69
2024/03/27 00:12:17;;;;;;;4.00;2.23;;;;;;;11.70;100.00;100793.03;2084399;28;20191;-69
2024/03/27 00:13:18;;;;;;;2.83;2.00;;;;;;;11.34;100.00;100747.94;2092979;28;20179;-69
2024/03/27 00:14:19;;;;;;;3.13;2.20;;;;;;;10.91;100.00;100666.22;2086761;28;20677;-69
2024/03/27 00:15:19;;;;;;;3.60;2.00;;;;;;;11.72;100.00;100787.81;2090613;28;20298;-69
2024/03/27 00:16:20;;;;;;;3.27;2.10;;;;;;;11.74;100.00;100788.16;2093032;28;20683;-69
2024/03/27 00:17:21;;;;;;;4.17;2.00;;;;;;;11.77;100.00;100790.06;2091466;28;20196;-69
2024/03/27 00:18:21;;;;;;;2.67;2.03;;;;;;;11.73;100.00;100786.59;2086632;28;20255;-69
2024/03/27 00:19:22;;;;;;;3.17;2.10;;;;;;;11.44;100.00;100746.09;2091434;28;20579;-69
2024/03/27 00:20:22;;;;;;;4.30;2.00;;;;;;;11.65;100.00;100768.59;2087294;28;20219;-69
2024/03/27 00:21:23;;;;;;;3.07;1.90;;;;;;;11.74;100.00;100785.38;2086005;28;20206;-69
2024/03/27 00:22:23;;;;;;;3.90;1.90;;;;;;;11.74;100.00;100782.59;2085265;28;20271;-69
2024/03/27 00:23:24;;;;;;;3.80;2.20;;;;;;;11.73;100.00;100786.59;2086212;28;20190;-69
2024/03/27 00:24:24;;;;;;;4.30;2.43;;;;;;;11.73;100.00;100783.06;2091090;28;20694;-69
2024/03/27 00:25:25;;;;;;;3.40;2.17;;;;;;;11.56;100.00;100762.03;2093251;28;20203;-69
2024/03/27 00:26:26;;;;;;;3.93;2.53;;;;;;;11.70;100.00;100779.16;2086143;28;20579;-69
2024/03/27 00:27:27;;;;;;;2.80;2.10;;;;;;;11.68;100.00;100778.81;2086510;28;20196;-69
2024/03/27 00:28:27;;;;;;;3.63;2.03;;;;;;;10.60;100.00;100604.03;2089954;28;20517;-69
2024/03/27 00:29:28;;;;;;;3.10;2.10;;;;;;;11.63;100.00;100764.69;2086018;28;20180;-69
2024/03/27 00:30:28;;;;;;;4.07;2.50;;;;;;;11.50;100.00;100745.16;2094678;28;20255;-69
2024/03/27 00:31:29;;;;;;;3.83;2.27;;;;;;;11.75;100.00;100781.41;2087529;28;20191;-69
2024/03/27 00:32:30;;;;;;;3.27;2.10;;;;;;;11.72;100.00;100770.38;2085608;28;20224;-69
2024/03/27 00:33:30;;;;;;;3.33;1.93;;;;;;;11.78;100.00;100777.75;2088604;28;20258;-69
2024/03/27 00:34:32;;;;;;;5.70;2.10;;;;;;;11.08;100.00;100676.09;2090748;28;20185;-69
2024/03/27 00:35:32;;;;;;;3.97;2.17;;;;;;;11.77;100.00;100772.63;2085341;28;20172;-69
2024/03/27 00:36:33;;;;;;;3.43;2.00;;;;;;;11.79;100.00;100772.97;2086074;28;20515;-69
2024/03/27 00:37:33;;;;;;;6.60;2.27;;;;;;;11.76;100.00;100776.63;2094130;28;20633;-69
2024/03/27 00:38:35;;;;;;;3.13;1.97;;;;;;;11.06;100.00;100662.66;2087792;28;20180;-69
2024/03/27 00:39:36;;;;;;;3.10;2.10;;;;;;;11.78;100.00;100777.75;2085778;28;20239;-69
2024/03/27 00:40:36;;;;;;;3.43;1.77;;;;;;;11.83;100.00;100770.91;2086096;28;20432;-69
2024/03/27 00:41:37;;;;;;;2.80;1.97;;;;;;;11.79;100.00;100770.97;2085584;28;20176;-69
2024/03/27 00:42:38;;;;;;;3.50;2.10;;;;;;;10.96;100.00;100649.81;2088209;28;20199;-69
2024/03/27 00:43:38;;;;;;;2.70;1.83;;;;;;;11.76;100.00;100777.41;2087089;28;20203;-69
2024/03/27 00:44:39;;;;;;;3.60;1.70;;;;;;;11.78;100.00;100768.66;2086228;28;20196;-69
2024/03/27 00:45:39;;;;;;;3.37;2.00;;;;;;;11.69;100.00;100760.16;2085754;28;20180;-69
2024/03/27 00:46:40;;;;;;;2.40;1.57;;;;;;;11.77;100.00;100769.84;2089411;28;20224;-69
2024/03/27 00:47:41;;;;;;;2.90;1.90;;;;;;;11.71;100.00;100757.72;2088730;28;20172;-69
2024/03/27 00:48:41;;;;;;;2.50;1.87;;;;;;;11.76;100.00;100773.84;2088110;28;20429;-69
2024/03/27 00:49:42;;;;;;;4.70;1.87;;;;;;;11.73;100.00;100764.38;2086239;28;20188;-69
2024/03/27 00:50:42;;;;;;;2.70;1.77;;;;;;;11.72;100.00;100767.59;2086205;28;20223;-69
2024/03/27 00:51:43;;;;;;;3.07;1.70;;;;;;;11.71;100.00;100766.84;2085190;28;20195;-69
2024/03/27 00:52:44;;;;;;;2.67;1.70;;;;;;;11.72;100.00;100768.38;2085130;28;20377;-70
2024/03/27 00:53:45;;;;;;;2.80;1.83;;;;;;;11.71;100.00;100769.63;2086412;28;20177;-69
2024/03/27 00:54:45;;;;;;;3.07;2.00;;;;;;;11.56;100.00;100748.97;2095905;28;20461;-69
2024/03/27 00:56:00;;;;;;;2.13;1.60;;;;;;;11.75;100.00;100772.28;2085945;28;20188;-69
2024/03/27 00:57:00;;;;;;;2.27;1.67;;;;;;;11.77;100.00;100775.41;2086398;28;20219;-69
2024/03/27 00:58:01;;;;;;;2.50;1.67;;;;;;;11.74;100.00;100765.94;2086361;28;20450;-69
2024/03/27 00:59:01;;;;;;;3.93;1.90;;;;;;;11.66;100.00;100755.47;2085725;28;20219;-69
2024/03/27 01:00:02;;;;;;;3.83;2.03;;;;;;;11.17;100.00;100670.72;2090153;28;20227;-69
2024/03/27 01:01:03;;;;;;;3.10;1.97;;;;;;;11.74;100.00;100768.72;2091989;28;20283;-69
2024/03/27 01:02:05;;;;;;;2.43;1.77;;;;;;;11.57;100.00;100741.38;2093486;28;20478;-69
2024/03/27 01:03:05;;;;;;;2.60;1.93;;;;;;;11.68;100.00;100762.16;2088491;28;21751;-69
2024/03/27 01:04:06;;;;;;;3.83;2.20;;;;;;;11.68;100.00;100764.16;2086453;28;20461;-70
2024/03/27 01:05:07;;;;;;;3.30;1.80;;;;;;;11.65;100.00;100760.25;2085467;28;20589;-70
2024/03/27 01:06:07;;;;;;;4.43;2.07;;;;;;;11.57;100.00;100755.28;2085859;28;21440;-69
2024/03/27 01:07:08;;;;;;;3.17;1.93;;;;;;;11.45;100.00;100736.56;2084913;28;20191;-69
2024/03/27 01:08:09;;;;;;;3.83;1.97;;;;;;;11.44;100.00;100732.22;2089356;28;20700;-69
2024/03/27 01:09:10;;;;;;;4.20;2.13;;;;;;;11.59;100.00;100761.22;2085892;28;20299;-69
2024/03/27 01:10:11;;;;;;;3.30;2.00;;;;;;;10.58;100.00;100606.44;2089343;28;20446;-70
2024/03/27 01:11:12;;;;;;;3.17;1.90;;;;;;;11.59;100.00;100756.44;2088901;28;20194;-69
2024/03/27 01:12:12;;;;;;;3.07;1.83;;;;;;;11.58;100.00;100763.16;2088712;28;20483;-70
2024/03/27 01:13:17;;;;;;;4.63;2.00;;;;;;;10.81;100.00;100634.75;2092737;28;20188;-70
2024/03/27 01:14:18;;;;;;;5.67;2.47;;;;;;;11.57;100.00;100753.28;2086794;28;20614;-69
2024/03/27 01:15:18;;;;;;;2.40;1.90;;;;;;;11.56;100.00;100751.72;2094549;28;20496;-69
2024/03/27 01:16:19;;;;;;;4.50;2.30;;;;;;;11.54;100.00;100754.16;2086932;28;20279;-69
2024/03/27 01:17:19;;;;;;;3.67;1.90;;;;;;;11.48;100.00;100744.78;2085341;28;20499;-69
2024/03/27 01:18:20;;;;;;;3.47;2.00;;;;;;;10.93;100.00;100658.25;2089462;28;20203;-69
2024/03/27 01:19:21;;;;;;;4.27;2.30;;;;;;;11.47;100.00;100750.81;2085784;28;20194;-69
2024/03/27 01:20:22;;;;;;;3.07;1.87;;;;;;;11.46;100.00;100752.78;2088240;28;20303;-69
2024/03/27 01:21:23;;;;;;;2.83;2.00;;;;;;;11.15;100.00;100703.63;2092652;28;20446;-69
2024/03/27 01:22:24;;;;;;;5.67;1.80;;;;;;;11.37;100.00;100730.41;2086143;28;20477;-69
2024/03/27 01:23:24;;;;;;;4.47;1.93;;;;;;;11.46;100.00;100740.88;2091917;28;20453;-69
2024/03/27 01:24:25;;;;;;;2.50;1.90;;;;;;;11.08;100.00;100687.97;2088458;28;20282;-69
2024/03/27 01:25:25;;;;;;;3.40;1.77;;;;;;;11.52;100.00;100753.06;2086682;28;20184;-69
2024/03/27 01:26:26;;;;;;;4.30;1.70;;;;;;;11.53;100.00;100754.59;2095521;28;20176;-69
2024/03/27 01:27:26;;;;;;;3.40;2.00;;;;;;;11.56;100.00;100753.72;2085606;28;20196;-70
2024/03/27 01:28:27;;;;;;;4.40;2.00;;;;;;;11.55;100.00;100749.38;2085827;28;20188;-69
2024/03/27 01:29:27;;;;;;;3.70;2.10;;;;;;;11.27;100.00;100700.19;2089822;28;20188;-69
2024/03/27 01:30:28;;;;;;;4.03;2.40;;;;;;;11.56;100.00;100748.16;2086584;28;20189;-69
2024/03/27 01:31:28;;;;;;;3.97;1.87;;;;;;;11.55;100.00;100750.19;2085266;28;20296;-69
2024/03/27 01:32:29;;;;;;;3.10;1.80;;;;;;;11.55;100.00;100747.41;2087143;28;20208;-69
2024/03/27 01:33:29;;;;;;;3.60;2.00;;;;;;;11.28;100.00;100710.81;2088900;28;20306;-69
2024/03/27 01:34:30;;;;;;;3.70;2.00;;;;;;;11.51;100.00;100746.72;2086038;28;20186;-69
2024/03/27 01:35:30;;;;;;;4.30;1.90;;;;;;;11.48;100.00;100744.03;2089131;28;20188;-69
2024/03/27 01:36:31;;;;;;;4.20;2.03;;;;;;;11.41;100.00;100739.44;2085773;28;24160;-69
2024/03/27 01:37:31;;;;;;;3.53;1.97;;;;;;;11.40;100.00;100731.53;2086396;28;20176;-69
2024/03/27 01:38:32;;;;;;;4.20;2.07;;;;;;;11.38;100.00;100731.19;2092845;28;20716;-69
2024/03/27 01:39:33;;;;;;;3.73;2.00;;;;;;;11.36;100.00;100731.63;2085599;28;20302;-69
2024/03/27 01:40:33;;;;;;;3.37;2.30;;;;;;;11.28;100.00;100719.13;2089295;28;20489;-69
2024/03/27 01:41:34;;;;;;;2.67;2.00;;;;;;;11.13;100.00;100703.31;2089680;28;20195;-69
2024/03/27 01:42:34;;;;;;;2.70;2.10;;;;;;;11.17;100.00;100718.63;2085053;28;20182;-69
2024/03/27 01:43:35;;;;;;;2.67;1.87;;;;;;;10.80;100.00;100666.47;2085393;28;20624;-69
2024/03/27 01:44:35;;;;;;;5.53;2.47;;;;;;;11.23;100.00;100724.44;2087715;28;20184;-69
2024/03/27 01:45:36;;;;;;;4.10;2.00;;;;;;;10.86;100.00;100666.75;2087842;28;20222;-69
2024/03/27 01:46:36;;;;;;;4.43;2.27;;;;;;;11.28;100.00;100718.38;2087105;28;20199;-69
2024/03/27 01:47:37;;;;;;;4.03;2.03;;;;;;;11.18;100.00;100695.22;2091777;28;20180;-69
2024/03/27 01:48:38;;;;;;;4.83;2.30;;;;;;;10.89;100.00;100654.78;2093381;28;20188;-69
2024/03/27 01:49:42;;;;;;;3.23;2.33;;;;;;;11.21;100.00;100707.44;2092346;28;20177;-69
2024/03/27 01:50:42;;;;;;;3.97;2.27;;;;;;;10.75;100.00;100644.81;2094928;28;20187;-69
2024/03/27 01:51:44;;;;;;;4.93;2.20;;;;;;;11.17;100.00;100718.63;2091366;28;20526;-69
2024/03/27 01:52:44;;;;;;;2.10;1.70;;;;;;;11.27;100.00;100719.59;2089091;28;20187;-69
2024/03/27 01:53:47;;;;;;;3.93;2.00;;;;;;;11.15;100.00;100695.31;2090143;28;20506;-69
2024/03/27 01:54:48;;;;;;;4.70;3.37;;;;;;;10.50;100.00;100594.75;2086367;28;20251;-69
2024/03/27 01:55:49;;;;;;;3.90;2.17;;;;;;;11.37;100.00;100724.88;2089979;28;20522;-69
2024/03/27 01:56:49;;;;;;;3.57;2.40;;;;;;;11.39;100.00;100716.09;2094999;28;20421;-69
2024/03/27 01:57:50;;;;;;;4.30;2.30;;;;;;;11.44;100.00;100733.03;2086961;28;20296;-69
2024/03/27 01:58:50;;;;;;;2.70;1.90;;;;;;;11.48;100.00;100724.59;2090642;28;20696;-69
2024/03/27 01:59:51;;;;;;;5.07;2.03;;;;;;;10.96;100.00;100649.81;2090904;28;20749;-69
2024/03/27 02:00:52;;;;;;;4.27;1.83;;;;;;;11.44;100.00;100727.47;2092322;28;20652;-69
2024/03/27 02:01:52;;;;;;;4.50;2.33;;;;;;;11.24;100.00;100703.81;2090928;28;20200;-69
2024/03/27 02:02:53;;;;;;;3.03;2.10;;;;;;;11.42;100.00;100732.66;2090492;28;20275;-69
2024/03/27 02:03:53;;;;;;;3.47;2.13;;;;;;;10.73;100.00;100621.50;2087614;28;20410;-69
2024/03/27 02:04:54;;;;;;;3.33;2.20;;;;;;;11.44;100.00;100726.69;2086994;28;20191;-69
2024/03/27 02:05:55;;;;;;;4.13;1.80;;;;;;;10.60;100.00;100604.03;2086882;28;20192;-69
2024/03/27 02:06:57;;;;;;;4.03;2.00;;;;;;;11.44;100.00;100726.69;2087345;28;20184;-69
2024/03/27 02:07:57;;;;;;;2.80;1.90;;;;;;;11.44;100.00;100732.22;2092534;28;20432;-69
2024/03/27 02:08:58;;;;;;;3.40;2.10;;;;;;;11.46;100.00;100729.78;2095543;28;20436;-69
2024/03/27 02:10:00;;;;;;;2.97;2.07;;;;;;;11.49;100.00;100731.72;2090993;28;20184;-69
2024/03/27 02:11:00;;;;;;;3.87;2.10;;;;;;;11.40;100.00;100712.91;2090167;28;20270;-69
2024/03/27 02:12:01;;;;;;;5.50;2.50;;;;;;;11.54;100.00;100725.63;2090236;28;20450;-69
2024/03/27 02:13:02;;;;;;;5.77;2.20;;;;;;;10.79;100.00;100615.03;2091272;28;20193;-69
2024/03/27 02:14:02;;;;;;;2.83;2.13;;;;;;;11.41;100.00;100717.22;2094790;28;20183;-69
2024/03/27 02:15:04;;;;;;;2.97;2.13;;;;;;;10.63;100.00;100592.84;2088815;28;20280;-69
2024/03/27 02:16:04;;;;;;;2.90;2.13;;;;;;;11.50;100.00;100722.16;2087067;28;20546;-69
2024/03/27 02:17:05;;;;;;;4.20;2.40;;;;;;;11.48;100.00;100722.59;2088202;28;20458;-69
2024/03/27 02:18:05;;;;;;;6.47;2.20;;;;;;;10.75;100.00;100624.63;2087319;28;20188;-69
2024/03/27 02:19:06;;;;;;;4.27;2.43;;;;;;;10.79;100.00;100639.97;2086916;28;20744;-68
2024/03/27 02:20:07;;;;;;;3.93;2.27;;;;;;;11.31;100.00;100725.81;2086182;28;20216;-69
2024/03/27 02:21:11;;;;;;;3.83;2.13;;;;;;;11.30;100.00;100713.94;2093809;28;20273;-69
2024/03/27 02:22:12;;;;;;;3.43;2.17;;;;;;;11.20;100.00;100701.13;2086829;28;20211;-69
2024/03/27 02:23:18;;;;;;;4.60;2.27;;;;;;;11.25;100.00;100706.16;2088720;28;21069;-69
2024/03/27 02:24:44;;;;;;;3.20;2.23;;;;;;;10.46;100.00;100605.13;2093875;28;20882;-69
2024/03/27 02:26:00;;;;;;;2.90;2.00;;;;;;;11.13;100.00;100715.16;2087726;28;20441;-69
2024/03/27 02:27:00;;;;;;;6.83;2.13;;;;;;;11.15;100.00;100707.19;2088516;28;20434;-69
2024/03/27 02:28:01;;;;;;;2.90;1.90;;;;;;;11.20;100.00;100705.88;2094460;28;20442;-69
2024/03/27 02:29:02;;;;;;;3.70;2.63;;;;;;;11.20;100.00;100712.22;2091026;28;20514;-69
2024/03/27 02:30:02;;;;;;;3.97;2.27;;;;;;;11.04;100.00;100690.03;2087655;28;20184;-69
2024/03/27 02:31:03;;;;;;;5.47;1.90;;;;;;;11.25;100.00;100716.47;2087079;28;20196;-69
2024/03/27 02:32:04;;;;;;;4.27;2.23;;;;;;;10.91;100.00;100657.91;2088047;28;20245;-69
2024/03/27 02:33:04;;;;;;;3.67;2.33;;;;;;;11.25;100.00;100713.69;2089867;28;20194;-69
2024/03/27 02:34:04;;;;;;;4.00;2.30;;;;;;;11.34;100.00;100714.66;2089307;28;20710;-69
2024/03/27 02:35:05;;;;;;;2.93;1.90;;;;;;;11.44;100.00;100715.59;2089923;28;20696;-69
2024/03/27 02:36:06;;;;;;;5.20;2.40;;;;;;;11.44;100.00;100715.59;2086949;28;20214;-69
2024/03/27 02:37:07;;;;;;;2.90;1.87;;;;;;;11.41;100.00;100717.22;2086470;28;20343;-69
2024/03/27 02:38:07;;;;;;;3.63;2.40;;;;;;;11.43;100.00;100723.13;2088752;28;20524;-69
2024/03/27 02:39:08;;;;;;;3.53;2.30;;;;;;;11.42;100.00;100712.47;2090762;28;20230;-69
2024/03/27 02:40:09;;;;;;;4.50;2.50;;;;;;;11.42;100.00;100715.25;2089878;28;20271;-69
2024/03/27 02:41:09;;;;;;;3.67;2.37;;;;;;;11.41;100.00;100711.69;2088408;28;20301;-69
2024/03/27 02:42:09;;;;;;;3.97;2.60;;;;;;;11.39;100.00;100716.91;2090933;28;20188;-69
2024/03/27 02:43:10;;;;;;;3.80;2.20;;;;;;;11.39;100.00;100716.09;2087676;28;20177;-69
2024/03/27 02:44:10;;;;;;;4.63;2.40;;;;;;;11.18;100.00;100686.13;2092458;28;20188;-69
2024/03/27 02:45:11;;;;;;;3.30;2.07;;;;;;;11.40;100.00;100718.47;2089120;28;20222;-69
2024/03/27 02:46:11;;;;;;;2.67;2.10;;;;;;;11.38;100.00;100717.34;2089725;28;20203;-69
2024/03/27 02:47:12;;;;;;;4.23;2.80;;;;;;;11.37;100.00;100722.09;2086050;28;20253;-69
2024/03/27 02:48:14;;;;;;;2.87;2.20;;;;;;;11.37;100.00;100718.56;2086836;28;20195;-69
2024/03/27 02:49:15;;;;;;;2.97;2.03;;;;;;;11.40;100.00;100723.22;2087443;28;21126;-69
2024/03/27 02:50:15;;;;;;;4.20;2.17;;;;;;;11.36;100.00;100725.28;2088294;28;20947;-69
2024/03/27 02:51:16;;;;;;;2.80;2.03;;;;;;;11.32;100.00;100721.84;2086982;28;20208;-69
2024/03/27 02:52:16;;;;;;;3.43;2.60;;;;;;;10.66;100.00;100630.00;2086020;28;20207;-69
2024/03/27 02:53:17;;;;;;;3.30;2.23;;;;;;;11.36;100.00;100726.09;2086723;28;20250;-69
2024/03/27 02:54:17;;;;;;;2.67;2.00;;;;;;;11.32;100.00;100722.63;2085351;28;20650;-69
2024/03/27 02:55:18;;;;;;;2.97;1.93;;;;;;;11.31;100.00;100729.38;2088572;28;20188;-69
2024/03/27 02:56:18;;;;;;;4.57;2.37;;;;;;;10.77;100.00;100639.59;2086264;28;20218;-69
2024/03/27 02:57:19;;;;;;;3.30;2.20;;;;;;;11.30;100.00;100725.06;2087750;28;20887;-69
2024/03/27 02:58:19;;;;;;;3.43;2.40;;;;;;;11.27;100.00;100717.59;2089680;28;20793;-69
2024/03/27 02:59:20;;;;;;;2.93;2.07;;;;;;;11.30;100.00;100724.25;2086867;28;20598;-69
2024/03/27 03:00:21;;;;;;;4.13;2.07;;;;;;;11.17;100.00;100707.53;2086478;28;20831;-69
2024/03/27 03:01:22;;;;;;;4.20;2.37;;;;;;;10.62;100.00;100630.09;2088232;28;20199;-69
2024/03/27 03:02:22;;;;;;;4.43;2.43;;;;;;;10.97;100.00;100681.88;2085905;28;20288;-69
2024/03/27 03:03:23;;;;;;;4.30;2.50;;;;;;;11.28;100.00;100726.69;2090841;28;20457;-69
2024/03/27 03:04:23;;;;;;;3.77;2.70;;;;;;;11.27;100.00;100725.16;2086620;28;20204;-69
2024/03/27 03:05:24;;;;;;;4.07;2.80;;;;;;;10.88;100.00;100667.88;2085857;28;20290;-69
2024/03/27 03:06:24;;;;;;;4.27;2.50;;;;;;;11.27;100.00;100723.13;2085645;28;20217;-69
2024/03/27 03:07:25;;;;;;;5.50;2.50;;;;;;;11.21;100.00;100727.66;2088076;28;20223;-69
2024/03/27 03:08:26;;;;;;;3.87;2.43;;;;;;;11.21;100.00;100724.09;2085916;28;20200;-69
2024/03/27 03:09:26;;;;;;;4.67;2.20;;;;;;;11.23;100.00;100724.44;2087601;28;20672;-69
2024/03/27 03:10:27;;;;;;;4.80;2.60;;;;;;;11.22;100.00;100722.91;2085831;28;20818;-69
2024/03/27 03:11:28;;;;;;;5.50;2.43;;;;;;;11.27;100.00;100725.91;2086457;28;20192;-69
2024/03/27 03:12:28;;;;;;;3.63;2.33;;;;;;;10.27;100.00;100575.53;2085744;28;20543;-69
2024/03/27 03:13:29;;;;;;;3.70;2.60;;;;;;;11.19;100.00;100719.00;2088715;28;20625;-69
2024/03/27 03:14:30;;;;;;;3.90;2.40;;;;;;;11.13;100.00;100720.69;2086573;28;20684;-69
2024/03/27 03:15:30;;;;;;;4.53;2.67;;;;;;;11.16;100.00;100722.63;2088976;28;20225;-69
2024/03/27 03:16:31;;;;;;;3.40;2.40;;;;;;;11.20;100.00;100719.75;2089116;28;20954;-69
2024/03/27 03:17:31;;;;;;;3.53;2.63;;;;;;;11.18;100.00;100717.41;2086385;28;20177;-69
2024/03/27 03:18:32;;;;;;;4.87;3.13;;;;;;;11.21;100.00;100722.09;2086126;28;20570;-70
2024/03/27 03:19:36;;;;;;;3.67;2.70;;;;;;;11.08;100.00;100696.28;2088448;28;20210;-69
2024/03/27 03:20:36;;;;;;;4.23;2.60;;;;;;;11.20;100.00;100731.66;2086385;28;20208;-69
2024/03/27 03:21:38;;;;;;;4.40;2.63;;;;;;;11.18;100.00;100720.19;2085779;28;21025;-69
2024/03/27 03:22:38;;;;;;;5.40;2.93;;;;;;;11.18;100.00;100714.63;2085886;28;20188;-69
2024/03/27 03:23:39;;;;;;;3.67;2.60;;;;;;;10.68;100.00;100644.19;2086076;28;24675;-69
2024/03/27 03:24:39;;;;;;;3.70;2.33;;;;;;;11.04;100.00;100703.91;2088235;28;20208;-69
2024/03/27 03:25:40;;;;;;;3.40;2.47;;;;;;;11.09;100.00;100708.94;2088431;28;20184;-69
2024/03/27 03:26:40;;;;;;;4.90;2.70;;;;;;;11.18;100.00;100722.97;2089587;28;20199;-69
2024/03/27 03:27:41;;;;;;;4.03;2.77;;;;;;;11.19;100.00;100726.53;2088211;28;20192;-69
2024/03/27 03:28:41;;;;;;;4.57;2.43;;;;;;;11.12;100.00;100713.59;2086850;28;20188;-68
2024/03/27 03:29:42;;;;;;;3.53;2.43;;;;;;;11.17;100.00;100726.19;2092126;28;20180;-68
2024/03/27 03:30:42;;;;;;;3.63;2.80;;;;;;;11.18;100.00;100719.41;2091537;28;20180;-68
2024/03/27 03:31:43;;;;;;;5.80;3.10;;;;;;;10.79;100.00;100673.22;2088404;28;20279;-69
2024/03/27 03:32:43;;;;;;;3.47;2.70;;;;;;;11.13;100.00;100722.72;2085943;28;20274;-69
2024/03/27 03:33:44;;;;;;;4.67;2.90;;;;;;;11.02;100.00;100711.09;2089328;28;20232;-69
2024/03/27 03:34:45;;;;;;;3.93;2.47;;;;;;;11.10;100.00;100721.59;2093958;28;20219;-69
2024/03/27 03:35:55;;;;;;;4.57;3.00;;;;;;;11.14;100.00;100729.81;2092481;28;20360;-68
2024/03/27 03:36:55;;;;;;;4.37;2.77;;;;;;;11.10;100.00;100726.34;2086278;28;20179;-69
2024/03/27 03:37:56;;;;;;;4.23;2.80;;;;;;;11.09;100.00;100735.88;2088297;28;20438;-69
2024/03/27 03:38:56;;;;;;;3.97;2.60;;;;;;;10.43;100.00;100644.78;2090107;28;20214;-69
2024/03/27 03:39:57;;;;;;;3.83;2.30;;;;;;;10.45;100.00;100639.59;2088082;28;20195;-69
2024/03/27 03:41:02;;;;;;;4.47;2.77;;;;;;;10.92;100.00;100706.59;2086298;28;20203;-69
2024/03/27 03:42:03;;;;;;;4.80;2.43;;;;;;;11.06;100.00;100728.44;2087787;28;20601;-69
2024/03/27 03:43:03;;;;;;;3.50;2.60;;;;;;;10.72;100.00;100681.69;2091892;28;20441;-68
2024/03/27 03:44:04;;;;;;;4.07;2.53;;;;;;;11.03;100.00;100732.88;2090906;28;20188;-68
2024/03/27 03:45:05;;;;;;;4.33;2.77;;;;;;;10.98;100.00;100727.84;2087667;28;20284;-68
2024/03/27 03:46:06;;;;;;;4.40;2.90;;;;;;;10.99;100.00;100728.59;2091536;28;20293;-69
2024/03/27 03:47:06;;;;;;;3.90;2.60;;;;;;;10.99;100.00;100726.63;2085298;28;20243;-69
2024/03/27 03:48:07;;;;;;;3.87;2.57;;;;;;;11.02;100.00;100727.75;2086377;28;20306;-69
2024/03/27 03:49:07;;;;;;;4.10;2.57;;;;;;;10.59;100.00;100663.41;2092298;28;20202;-69
2024/03/27 03:50:08;;;;;;;4.17;2.73;;;;;;;11.00;100.00;100724.59;2086694;28;20216;-69
2024/03/27 03:51:08;;;;;;;3.67;2.33;;;;;;;11.05;100.00;100724.09;2087220;28;20200;-69
2024/03/27 03:52:09;;;;;;;4.60;2.80;;;;;;;10.79;100.00;100684.31;2085983;28;20309;-68
2024/03/27 03:53:09;;;;;;;5.07;2.73;;;;;;;11.12;100.00;100732.25;2086166;28;20296;-69
2024/03/27 03:54:10;;;;;;;4.97;3.10;;;;;;;11.04;100.00;100703.13;2085866;28;20224;-69
2024/03/27 03:55:10;;;;;;;2.90;2.20;;;;;;;11.15;100.00;100720.28;2091144;28;20190;-68
2024/03/27 03:56:11;;;;;;;4.17;2.40;;;;;;;10.81;100.00;100681.88;2095141;28;20207;-69
2024/03/27 03:57:11;;;;;;;4.13;2.70;;;;;;;10.27;100.00;100591.34;2091816;28;20195;-68
2024/03/27 03:58:13;;;;;;;4.63;2.70;;;;;;;11.02;100.00;100713.88;2090141;28;20188;-69
2024/03/27 03:59:13;;;;;;;3.73;2.60;;;;;;;11.03;100.00;100721.78;2086938;28;20254;-68
2024/03/27 04:00:20;;;;;;;3.40;2.70;;;;;;;10.77;100.00;100667.31;2086157;28;20512;-68
2024/03/27 04:01:20;;;;;;;3.10;2.43;;;;;;;11.11;100.00;100717.59;2086119;28;20254;-69
2024/03/27 04:02:20;;;;;;;4.83;2.80;;;;;;;11.09;100.00;100713.69;2085387;28;20993;-69
2024/03/27 04:03:21;;;;;;;3.20;2.30;;;;;;;11.07;100.00;100714.13;2091718;28;20186;-69
2024/03/27 04:04:22;;;;;;;5.97;2.50;;;;;;;10.85;100.00;100699.22;2086627;28;20274;-69
2024/03/27 04:05:22;;;;;;;4.70;2.83;;;;;;;10.93;100.00;100699.84;2085847;28;20196;-68
2024/03/27 04:06:24;;;;;;;4.10;2.70;;;;;;;10.69;100.00;100665.94;2086165;28;20728;-68
2024/03/27 04:07:25;;;;;;;4.40;2.90;;;;;;;10.88;100.00;100701.13;2086082;28;20208;-69
2024/03/27 04:08:26;;;;;;;4.33;2.60;;;;;;;10.92;100.00;100712.91;2086320;28;20920;-68
2024/03/27 04:09:27;;;;;;;5.73;2.53;;;;;;;10.92;100.00;100712.13;2088283;28;20785;-69
2024/03/27 04:10:27;;;;;;;6.23;3.07;;;;;;;10.93;100.00;100708.94;2087231;28;20271;-69
2024/03/27 04:11:28;;;;;;;4.60;2.87;;;;;;;10.90;100.00;100703.47;2086209;28;20261;-68
2024/03/27 04:12:28;;;;;;;4.70;3.43;;;;;;;10.18;100.00;100589.16;2089606;28;20196;-68
2024/03/27 04:13:29;;;;;;;4.37;2.93;;;;;;;10.90;100.00;100706.22;2090867;28;20206;-69
2024/03/27 04:14:29;;;;;;;3.50;2.60;;;;;;;10.49;100.00;100645.84;2086947;28;20188;-69
2024/03/27 04:15:30;;;;;;;3.83;2.70;;;;;;;10.90;100.00;100703.47;2087076;28;20243;-69
2024/03/27 04:16:30;;;;;;;4.33;2.73;;;;;;;10.96;100.00;100705.28;2086267;28;20743;-69
2024/03/27 04:17:31;;;;;;;3.30;2.67;;;;;;;10.91;100.00;100696.72;2088889;28;20661;-68
2024/03/27 04:18:32;;;;;;;3.43;2.60;;;;;;;10.94;100.00;100702.19;2090846;28;20646;-69
2024/03/27 04:19:32;;;;;;;4.40;2.67;;;;;;;10.86;100.00;100700.78;2089142;28;20527;-69
2024/03/27 04:20:34;;;;;;;5.50;2.70;;;;;;;10.93;100.00;100700.63;2088246;28;20646;-69
2024/03/27 04:21:34;;;;;;;4.00;2.50;;;;;;;10.75;100.00;100666.19;2087203;28;20195;-68
2024/03/27 04:22:35;;;;;;;5.40;2.87;;;;;;;10.96;100.00;100699.75;2086866;28;20529;-68
2024/03/27 04:23:35;;;;;;;5.83;2.90;;;;;;;10.99;100.00;100701.66;2087280;28;20273;-69
2024/03/27 04:24:36;;;;;;;4.27;2.87;;;;;;;11.05;100.00;100701.91;2088259;28;20226;-68
2024/03/27 04:25:37;;;;;;;5.30;2.90;;;;;;;11.00;100.00;100691.31;2085900;28;20184;-69
2024/03/27 04:26:37;;;;;;;4.30;2.70;;;;;;;10.53;100.00;100618.03;2087803;28;20188;-69
2024/03/27 04:27:38;;;;;;;3.67;2.17;;;;;;;11.16;100.00;100702.41;2084723;28;20196;-68
2024/03/27 04:28:39;;;;;;;4.13;3.17;;;;;;;11.18;100.00;100711.09;2091759;28;20441;-69
2024/03/27 04:29:40;;;;;;;4.27;2.77;;;;;;;11.20;100.00;100709.44;2087324;28;20194;-69
2024/03/27 04:30:41;;;;;;;4.03;2.57;;;;;;;10.64;100.00;100615.78;2087680;28;20207;-69
2024/03/27 04:31:42;;;;;;;5.83;3.20;;;;;;;11.19;100.00;100699.56;2087407;28;20283;-68
2024/03/27 04:32:43;;;;;;;3.63;2.50;;;;;;;11.22;100.00;100703.47;2087645;28;20454;-69
2024/03/27 04:33:44;;;;;;;4.00;2.80;;;;;;;11.27;100.00;100711.28;2085776;28;20238;-69
2024/03/27 04:34:44;;;;;;;4.20;2.80;;;;;;;11.32;100.00;100713.53;2085715;28;20446;-69
2024/03/27 04:35:45;;;;;;;4.37;2.80;;;;;;;11.35;100.00;100713.44;2085947;28;20206;-69
2024/03/27 04:36:45;;;;;;;3.30;2.50;;;;;;;11.39;100.00;100716.09;2085820;28;20282;-69
2024/03/27 04:37:46;;;;;;;3.77;2.40;;;;;;;11.42;100.00;100720.81;2085999;28;20649;-69
2024/03/27 04:38:48;;;;;;;4.00;2.80;;;;;;;11.34;100.00;100716.63;2093793;28;20249;-69
2024/03/27 04:39:49;;;;;;;4.33;3.13;;;;;;;11.18;100.00;100706.31;2087219;28;20196;-69